createdAt,value
2018-08-18T00:00:15.394Z,37.00
2018-08-18T00:02:45.754Z,36.20
2018-08-18T00:05:15.571Z,36.20
2018-08-18T00:07:48.262Z,36.20
2018-08-18T00:10:18.867Z,36.60
2018-08-18T00:12:48.883Z,36.50
2018-08-18T00:15:17.283Z,36.40
2018-08-18T00:17:45.437Z,36.30
2018-08-18T00:20:16.214Z,36.30
2018-08-18T00:22:44.032Z,36.50
2018-08-18T00:25:12.041Z,36.50
2018-08-18T00:27:40.588Z,36.40
2018-08-18T00:30:14.873Z,36.40
2018-08-18T00:32:43.031Z,36.40
2018-08-18T00:35:10.812Z,36.70
2018-08-18T00:37:39.284Z,36.50
2018-08-18T00:40:08.699Z,36.70
2018-08-18T00:42:44.302Z,36.40
2018-08-18T00:45:16.396Z,36.50
2018-08-18T00:47:44.357Z,36.20
2018-08-18T00:50:17.139Z,36.40
2018-08-18T00:52:53.561Z,36.20
2018-08-18T00:55:21.155Z,36.20
2018-08-18T00:57:48.995Z,36.20
2018-08-18T01:00:16.828Z,35.70
2018-08-18T01:02:44.711Z,35.80
2018-08-18T01:05:12.636Z,35.80
2018-08-18T01:07:40.699Z,35.80
2018-08-18T01:10:08.603Z,35.30
2018-08-18T01:12:36.473Z,35.40
2018-08-18T01:15:06.858Z,35.30
2018-08-18T01:17:34.886Z,35.20
2018-08-18T01:20:02.857Z,35.20
2018-08-18T01:22:30.983Z,35.40
2018-08-18T01:24:58.828Z,34.80
2018-08-18T01:27:26.899Z,35.00
2018-08-18T01:30:00.288Z,35.00
2018-08-18T01:32:29.537Z,34.70
2018-08-18T01:34:57.281Z,34.90
2018-08-18T01:37:24.999Z,34.60
2018-08-18T01:39:54.125Z,34.30
2018-08-18T01:42:22.336Z,34.30
2018-08-18T01:44:52.967Z,34.50
2018-08-18T01:47:20.969Z,34.00
2018-08-18T01:49:48.765Z,34.00
2018-08-18T01:52:20.368Z,34.10
2018-08-18T01:54:48.295Z,34.00
2018-08-18T01:57:18.278Z,34.00
2018-08-18T01:59:46.607Z,34.00
2018-08-18T02:02:20.438Z,34.00
2018-08-18T02:07:35.279Z,33.90
2018-08-18T02:10:04.744Z,33.90
2018-08-18T02:12:32.479Z,33.90
2018-08-18T02:15:00.461Z,33.90
2018-08-18T02:17:31.083Z,33.80
2018-08-18T02:19:59.143Z,33.80
2018-08-18T02:22:27.912Z,33.90
2018-08-18T02:24:55.546Z,33.50
2018-08-18T02:27:23.483Z,33.20
2018-08-18T02:30:03.473Z,33.20
2018-08-18T02:32:32.601Z,33.50
2018-08-18T02:35:00.560Z,33.40
2018-08-18T02:37:29.040Z,33.30
2018-08-18T02:39:56.861Z,33.60
2018-08-18T02:42:24.585Z,34.50
2018-08-18T02:44:54.163Z,33.60
2018-08-18T02:47:22.327Z,33.70
2018-08-18T02:49:54.928Z,33.60
2018-08-18T02:52:28.138Z,33.70
2018-08-18T02:54:59.854Z,33.50
2018-08-18T02:57:30.049Z,33.40
2018-08-18T03:00:01.142Z,33.50
2018-08-18T03:02:29.590Z,33.60
2018-08-18T03:04:57.683Z,33.70
2018-08-18T03:07:29.720Z,33.60
2018-08-18T03:09:58.170Z,33.50
2018-08-18T03:13:04.555Z,33.50
2018-08-18T03:16:10.303Z,33.50
2018-08-18T03:18:56.367Z,33.50
2018-08-18T03:21:35.136Z,33.40
2018-08-18T03:24:12.372Z,33.50
2018-08-18T03:26:43.057Z,33.50
2018-08-18T03:29:11.345Z,33.50
2018-08-18T03:31:40.512Z,33.50
2018-08-18T03:34:09.427Z,33.60
2018-08-18T03:36:38.153Z,33.50
2018-08-18T03:39:07.245Z,33.50
2018-08-18T03:41:40.649Z,33.50
2018-08-18T03:44:09.146Z,33.50
2018-08-18T03:46:37.375Z,33.70
2018-08-18T03:49:05.297Z,33.80
2018-08-18T03:51:38.842Z,33.50
2018-08-18T03:54:29.356Z,33.70
2018-08-18T03:56:57.100Z,33.80
2018-08-18T03:59:32.518Z,33.50
2018-08-18T04:02:01.353Z,33.60
2018-08-18T04:04:31.350Z,34.20
2018-08-18T04:06:59.844Z,34.30
2018-08-18T04:09:29.638Z,34.00
2018-08-18T04:11:57.818Z,34.20
2018-08-18T04:14:44.203Z,34.10
2018-08-18T04:17:25.034Z,34.20
2018-08-18T04:19:52.929Z,34.70
2018-08-18T04:22:22.136Z,34.00
2018-08-18T04:24:49.793Z,34.00
2018-08-18T04:27:45.689Z,34.40
2018-08-18T04:30:15.576Z,34.30
2018-08-18T04:32:54.420Z,34.10
2018-08-18T04:35:23.477Z,34.30
2018-08-18T04:37:52.511Z,34.60
2018-08-18T04:40:20.960Z,34.30
2018-08-18T04:42:48.752Z,34.30
2018-08-18T04:45:18.416Z,34.10
2018-08-18T04:47:46.376Z,34.10
2018-08-18T04:50:14.084Z,34.00
2018-08-18T04:52:42.076Z,34.40
2018-08-18T04:55:10.931Z,33.60
2018-08-18T04:57:39.106Z,33.20
2018-08-18T05:00:09.745Z,34.10
2018-08-18T05:02:47.871Z,33.60
2018-08-18T05:05:17.879Z,34.00
2018-08-18T05:07:47.879Z,34.20
2018-08-18T05:10:18.495Z,34.70
2018-08-18T05:12:46.392Z,34.40
2018-08-18T05:15:14.774Z,34.20
2018-08-18T05:17:42.607Z,34.30
2018-08-18T05:20:14.613Z,34.80
2018-08-18T05:22:43.042Z,34.80
2018-08-18T05:25:10.962Z,33.90
2018-08-18T05:27:38.956Z,33.30
2018-08-18T05:30:08.151Z,33.30
2018-08-18T05:32:36.705Z,33.30
2018-08-18T05:35:10.292Z,33.30
2018-08-18T05:37:40.069Z,33.30
2018-08-18T05:40:08.063Z,33.40
2018-08-18T05:42:38.224Z,33.20
2018-08-18T05:45:21.510Z,33.30
2018-08-18T05:47:51.738Z,33.30
2018-08-18T05:50:20.698Z,33.20
2018-08-18T05:52:48.426Z,32.30
2018-08-18T05:55:16.102Z,32.60
2018-08-18T05:57:44.403Z,32.00
2018-08-18T06:00:18.159Z,32.00
2018-08-18T06:02:52.639Z,32.00
2018-08-18T06:05:20.377Z,31.30
2018-08-18T06:07:48.083Z,31.60
2018-08-18T06:10:16.049Z,32.30
2018-08-18T06:12:43.904Z,31.70
2018-08-18T06:15:12.103Z,31.50
2018-08-18T06:17:41.520Z,31.60
2018-08-18T06:20:09.501Z,31.50
2018-08-18T06:22:39.326Z,31.70
2018-08-18T06:25:08.125Z,31.60
2018-08-18T06:27:36.186Z,31.30
2018-08-18T06:30:09.840Z,31.30
2018-08-18T06:32:38.318Z,31.40
2018-08-18T06:35:06.632Z,31.70
2018-08-18T06:37:40.548Z,31.30
2018-08-18T06:40:10.939Z,31.50
2018-08-18T06:42:41.262Z,31.40
2018-08-18T06:45:12.731Z,31.10
2018-08-18T06:47:40.772Z,31.10
2018-08-18T06:50:14.603Z,31.20
2018-08-18T06:52:43.255Z,31.50
2018-08-18T06:58:11.567Z,31.10
2018-08-18T07:00:40.560Z,31.30
2018-08-18T07:05:55.027Z,30.30
2018-08-18T07:08:25.059Z,31.20
2018-08-18T07:10:53.587Z,31.50
2018-08-18T07:13:23.220Z,30.10
2018-08-18T07:18:35.369Z,30.10
2018-08-18T07:21:06.656Z,30.10
2018-08-18T07:23:34.752Z,29.70
2018-08-18T07:26:03.340Z,29.90
2018-08-18T07:28:33.380Z,30.00
2018-08-18T07:31:01.416Z,29.80
2018-08-18T07:33:29.530Z,29.70
2018-08-18T07:35:57.614Z,29.00
2018-08-18T07:38:26.992Z,29.10
2018-08-18T07:41:04.142Z,29.00
2018-08-18T07:43:33.924Z,29.10
2018-08-18T07:46:09.254Z,28.70
2018-08-18T07:48:38.506Z,28.80
2018-08-18T07:51:06.747Z,28.30
2018-08-18T07:53:35.204Z,27.70
2018-08-18T07:56:03.371Z,27.50
2018-08-18T07:58:40.904Z,27.60
2018-08-18T08:01:10.159Z,27.60
2018-08-18T08:03:40.719Z,28.20
2018-08-18T08:06:09.778Z,27.40
2018-08-18T08:08:44.076Z,27.90
2018-08-18T08:11:13.404Z,27.40
2018-08-18T08:13:41.884Z,27.80
2018-08-18T08:16:10.149Z,27.60
2018-08-18T08:18:39.804Z,28.00
2018-08-18T08:21:10.315Z,27.80
2018-08-18T08:23:38.654Z,27.40
2018-08-18T08:26:07.764Z,27.30
2018-08-18T08:28:36.504Z,27.40
2018-08-18T08:31:04.657Z,27.00
2018-08-18T08:33:37.845Z,27.10
2018-08-18T08:36:12.387Z,27.50
2018-08-18T08:39:02.556Z,27.10
2018-08-18T08:41:32.078Z,26.90
2018-08-18T08:44:00.946Z,27.10
2018-08-18T08:46:39.960Z,26.40
2018-08-18T08:49:09.331Z,26.30
2018-08-18T08:51:37.975Z,26.00
2018-08-18T08:54:13.954Z,26.30
2018-08-18T08:56:42.085Z,26.50
2018-08-18T08:59:12.926Z,26.50
2018-08-18T09:01:41.922Z,26.50
2018-08-18T09:06:57.076Z,27.40
2018-08-18T09:09:25.660Z,27.40
2018-08-18T09:11:54.438Z,27.70
2018-08-18T09:14:22.547Z,28.00
2018-08-18T09:16:51.452Z,28.70
2018-08-18T09:19:20.157Z,27.60
2018-08-18T09:21:54.206Z,27.90
2018-08-18T09:24:24.715Z,28.10
2018-08-18T09:26:53.912Z,28.00
2018-08-18T09:29:23.120Z,27.90
2018-08-18T09:31:54.095Z,28.00
2018-08-18T09:34:22.144Z,27.50
2018-08-18T09:36:56.020Z,27.60
2018-08-18T09:39:33.273Z,27.00
2018-08-18T09:42:02.435Z,26.70
2018-08-18T09:44:32.722Z,26.80
2018-08-18T09:47:00.539Z,27.40
2018-08-18T09:49:29.418Z,27.20
2018-08-18T09:51:57.312Z,27.80
2018-08-18T09:54:25.680Z,27.20
2018-08-18T09:56:53.809Z,27.00
2018-08-18T09:59:21.815Z,27.00
2018-08-18T10:01:49.339Z,26.90
2018-08-18T10:04:16.943Z,27.50
2018-08-18T10:09:47.962Z,27.20
2018-08-18T10:12:15.651Z,27.10
2018-08-18T10:14:43.462Z,27.50
2018-08-18T10:17:11.147Z,27.00
2018-08-18T10:19:38.820Z,26.50
2018-08-18T10:22:10.601Z,26.00
2018-08-18T10:24:39.415Z,26.10
2018-08-18T10:27:07.180Z,26.00
2018-08-18T10:29:35.878Z,26.00
2018-08-18T10:32:03.668Z,26.10
2018-08-18T10:34:33.388Z,25.50
2018-08-18T10:37:03.484Z,25.60
2018-08-18T10:39:31.224Z,25.20
2018-08-18T10:42:12.299Z,26.10
2018-08-18T10:44:51.268Z,25.10
2018-08-18T10:47:21.391Z,24.90
2018-08-18T10:50:01.942Z,24.50
2018-08-18T10:52:45.590Z,24.40
2018-08-18T10:55:14.348Z,25.10
2018-08-18T10:57:53.929Z,25.00
2018-08-18T11:00:23.341Z,24.70
2018-08-18T11:02:52.690Z,24.00
2018-08-18T11:05:21.177Z,23.90
2018-08-18T11:07:55.340Z,24.00
2018-08-18T11:10:30.884Z,23.80
2018-08-18T11:12:58.609Z,23.60
2018-08-18T11:15:26.540Z,25.00
2018-08-18T11:17:54.583Z,23.40
2018-08-18T11:20:23.657Z,23.90
2018-08-18T11:22:57.399Z,23.50
2018-08-18T11:25:29.566Z,23.40
2018-08-18T11:28:03.314Z,23.90
2018-08-18T11:30:32.040Z,23.40
2018-08-18T11:33:00.549Z,25.00
2018-08-18T11:35:28.448Z,23.90
2018-08-18T11:38:02.190Z,22.90
2018-08-18T11:40:31.022Z,22.70
2018-08-18T11:43:00.019Z,22.70
2018-08-18T11:45:28.768Z,21.80
2018-08-18T11:47:59.259Z,22.70
2018-08-18T11:50:27.508Z,22.10
2018-08-18T11:52:55.150Z,21.60
2018-08-18T11:55:23.003Z,21.50
2018-08-18T11:57:51.403Z,21.90
2018-08-18T12:00:19.302Z,21.50
2018-08-18T12:02:47.134Z,21.70
2018-08-18T12:05:14.984Z,21.90
2018-08-18T12:07:43.447Z,20.70
2018-08-18T12:10:11.156Z,20.80
2018-08-18T12:12:38.859Z,20.60
2018-08-18T12:15:06.611Z,20.00
2018-08-18T12:17:36.746Z,20.40
2018-08-18T12:20:04.815Z,19.20
2018-08-18T12:22:32.701Z,19.70
2018-08-18T12:25:01.164Z,19.10
2018-08-18T12:27:29.723Z,18.30
2018-08-18T12:29:57.811Z,17.60
2018-08-18T12:32:26.252Z,17.80
2018-08-18T12:34:55.198Z,17.50
2018-08-18T12:37:27.956Z,16.60
2018-08-18T12:39:57.489Z,16.70
2018-08-18T12:42:26.839Z,15.30
2018-08-18T12:44:54.751Z,14.40
2018-08-18T12:47:22.511Z,13.70
2018-08-18T12:49:50.719Z,13.10
2018-08-18T12:52:18.691Z,13.60
2018-08-18T12:54:47.315Z,13.20
2018-08-18T12:57:25.191Z,11.80
2018-08-18T12:59:52.963Z,11.80
2018-08-18T13:02:26.745Z,11.30
2018-08-18T13:04:56.587Z,10.60
2018-08-18T13:07:24.847Z,10.90
2018-08-18T13:10:02.664Z,11.20
2018-08-18T13:12:30.343Z,11.60
2018-08-18T13:14:58.071Z,11.50
2018-08-18T13:17:26.161Z,11.50
2018-08-18T13:19:54.564Z,12.00
2018-08-18T13:22:23.706Z,11.80
2018-08-18T13:24:51.510Z,11.60
2018-08-18T13:27:19.150Z,12.40
2018-08-18T13:29:47.295Z,12.60
2018-08-18T13:32:15.090Z,12.80
2018-08-18T13:34:42.791Z,12.90
2018-08-18T13:37:10.539Z,12.40
2018-08-18T13:39:38.375Z,12.00
2018-08-18T13:42:19.593Z,11.90
2018-08-18T13:44:47.328Z,12.20
2018-08-18T13:47:15.036Z,11.80
2018-08-18T13:49:43.061Z,12.40
2018-08-18T13:52:10.724Z,11.80
2018-08-18T13:54:42.928Z,12.00
2018-08-18T13:57:11.289Z,12.70
2018-08-18T13:59:41.512Z,11.90
2018-08-18T14:02:09.993Z,12.40
2018-08-18T14:04:39.921Z,12.60
2018-08-18T14:07:08.175Z,12.70
2018-08-18T14:09:36.840Z,11.60
2018-08-18T14:12:10.364Z,12.00
2018-08-18T14:14:47.990Z,12.00
2018-08-18T14:17:18.688Z,12.20
2018-08-18T14:19:50.870Z,12.30
2018-08-18T14:22:20.292Z,12.70
2018-08-18T14:24:48.723Z,12.70
2018-08-18T14:27:19.212Z,12.40
2018-08-18T14:29:46.990Z,13.10
2018-08-18T14:32:35.785Z,12.60
2018-08-18T14:35:11.745Z,12.30
2018-08-18T14:37:41.103Z,12.40
2018-08-18T14:40:12.174Z,12.70
2018-08-18T14:42:40.009Z,13.20
2018-08-18T14:45:10.078Z,13.10
2018-08-18T14:47:37.732Z,13.00
2018-08-18T14:50:15.866Z,12.10
2018-08-18T14:52:44.684Z,12.40
2018-08-18T14:55:16.177Z,13.40
2018-08-18T14:58:02.219Z,12.20
2018-08-18T15:00:30.365Z,13.20
2018-08-18T15:02:58.747Z,13.40
2018-08-18T15:05:26.576Z,13.20
2018-08-18T15:07:58.805Z,12.60
2018-08-18T15:10:38.092Z,12.20
2018-08-18T15:13:06.404Z,12.40
2018-08-18T15:15:34.738Z,12.70
2018-08-18T15:18:05.828Z,13.00
2018-08-18T15:20:35.235Z,13.00
2018-08-18T15:23:03.896Z,13.00
2018-08-18T15:25:33.302Z,13.10
2018-08-18T15:28:03.341Z,13.30
2018-08-18T15:30:32.607Z,13.10
2018-08-18T15:33:00.543Z,13.40
2018-08-18T15:35:28.382Z,13.50
2018-08-18T15:37:56.961Z,13.30
2018-08-18T15:40:26.729Z,13.30
2018-08-18T15:42:54.814Z,13.10
2018-08-18T15:45:22.643Z,12.80
2018-08-18T15:48:03.555Z,13.00
2018-08-18T15:50:31.440Z,13.20
2018-08-18T15:52:59.118Z,13.00
2018-08-18T15:55:26.892Z,13.00
2018-08-18T15:57:55.646Z,13.30
2018-08-18T16:00:31.928Z,13.30
2018-08-18T16:03:00.377Z,13.90
2018-08-18T16:05:29.645Z,13.60
2018-08-18T16:07:58.916Z,13.80
2018-08-18T16:10:26.995Z,13.20
2018-08-18T16:13:01.706Z,13.30
2018-08-18T16:15:30.272Z,13.40
2018-08-18T16:17:58.102Z,13.90
2018-08-18T16:20:26.506Z,14.50
2018-08-18T16:22:58.116Z,14.00
2018-08-18T16:25:38.635Z,13.80
2018-08-18T16:30:41.739Z,13.90
2018-08-18T16:33:18.814Z,13.90
2018-08-18T16:35:47.003Z,13.60
2018-08-18T16:38:18.244Z,13.30
2018-08-18T16:40:46.425Z,13.40
2018-08-18T16:43:14.919Z,13.50
2018-08-18T16:45:54.731Z,13.60
2018-08-18T16:48:23.939Z,13.70
2018-08-18T16:50:51.801Z,13.90
2018-08-18T16:53:19.735Z,13.80
2018-08-18T16:55:47.600Z,13.80
2018-08-18T16:58:16.179Z,13.70
2018-08-18T17:01:00.952Z,13.70
2018-08-18T17:03:35.046Z,13.70
2018-08-18T17:06:05.087Z,13.80
2018-08-18T17:08:32.939Z,13.80
2018-08-18T17:11:00.887Z,13.70
2018-08-18T17:13:33.030Z,14.00
2018-08-18T17:16:01.389Z,14.20
2018-08-18T17:18:31.872Z,13.80
2018-08-18T17:21:01.073Z,13.60
2018-08-18T17:23:30.482Z,13.60
2018-08-18T17:25:58.283Z,13.10
2018-08-18T17:28:26.561Z,12.90
2018-08-18T17:30:55.128Z,12.90
2018-08-18T17:33:24.052Z,12.30
2018-08-18T17:35:51.768Z,12.60
2018-08-18T17:38:19.955Z,12.20
2018-08-18T17:40:47.792Z,12.50
2018-08-18T17:43:17.053Z,12.00
2018-08-18T17:45:52.548Z,12.20
2018-08-18T17:48:21.385Z,11.90
2018-08-18T17:50:49.688Z,12.20
2018-08-18T17:53:17.761Z,12.20
2018-08-18T17:55:50.299Z,12.10
2018-08-18T17:58:19.178Z,12.40
2018-08-18T18:00:48.065Z,12.50
2018-08-18T18:03:16.629Z,12.50
2018-08-18T18:05:45.025Z,12.40
2018-08-18T18:08:13.143Z,13.20
2018-08-18T18:10:41.326Z,12.70
2018-08-18T18:13:16.437Z,12.70
2018-08-18T18:15:46.828Z,13.00
2018-08-18T18:18:18.103Z,12.70
2018-08-18T18:20:50.052Z,12.70
2018-08-18T18:23:18.891Z,12.60
2018-08-18T18:25:47.364Z,12.80
2018-08-18T18:28:15.739Z,12.90
2018-08-18T18:30:43.492Z,12.70
2018-08-18T18:33:17.896Z,13.00
2018-08-18T18:35:48.787Z,12.90
2018-08-18T18:38:18.035Z,13.00
2018-08-18T18:40:48.440Z,13.40
2018-08-18T18:43:16.194Z,13.70
2018-08-18T18:45:47.002Z,14.20
2018-08-18T18:48:15.977Z,14.20
2018-08-18T18:50:45.804Z,14.20
2018-08-18T18:53:18.187Z,13.80
2018-08-18T18:55:54.201Z,14.40
2018-08-18T18:58:26.454Z,13.90
2018-08-18T19:01:00.607Z,14.20
2018-08-18T19:03:28.471Z,14.50
2018-08-18T19:05:57.918Z,14.70
2018-08-18T19:08:26.290Z,15.10
2018-08-18T19:10:54.049Z,15.40
2018-08-18T19:13:21.765Z,15.40
2018-08-18T19:15:49.588Z,14.60
2018-08-18T19:18:18.537Z,14.80
2018-08-18T19:20:46.183Z,15.30
2018-08-18T19:23:20.011Z,15.30
2018-08-18T19:25:48.866Z,15.90
2018-08-18T19:28:18.773Z,15.60
2018-08-18T19:30:46.907Z,15.70
2018-08-18T19:33:15.452Z,16.30
2018-08-18T19:35:46.270Z,16.80
2018-08-18T19:38:14.842Z,16.50
2018-08-18T19:40:44.480Z,16.60
2018-08-18T19:43:20.861Z,16.60
2018-08-18T19:45:48.854Z,16.90
2018-08-18T19:48:18.870Z,16.90
2018-08-18T19:50:52.996Z,17.00
2018-08-18T19:53:24.062Z,17.40
2018-08-18T19:55:53.782Z,17.00
2018-08-18T19:58:23.038Z,17.60
2018-08-18T20:00:52.808Z,18.50
2018-08-18T20:03:21.089Z,18.10
2018-08-18T20:05:48.919Z,18.20
2018-08-18T20:08:18.440Z,18.40
2018-08-18T20:11:02.096Z,18.40
2018-08-18T20:13:31.209Z,18.40
2018-08-18T20:16:00.187Z,18.30
2018-08-18T20:18:45.542Z,18.30
2018-08-18T20:21:13.389Z,18.30
2018-08-18T20:23:41.099Z,18.30
2018-08-18T20:26:09.028Z,18.20
2018-08-18T20:28:36.758Z,18.60
2018-08-18T20:31:04.452Z,18.80
2018-08-18T20:33:32.136Z,19.20
2018-08-18T20:35:59.717Z,19.20
2018-08-18T20:38:31.850Z,19.30
2018-08-18T20:40:59.676Z,19.30
2018-08-18T20:43:27.976Z,19.40
2018-08-18T20:45:55.627Z,19.80
2018-08-18T20:48:23.282Z,19.70
2018-08-18T20:50:51.270Z,20.00
2018-08-18T20:53:18.941Z,20.20
2018-08-18T20:55:58.048Z,20.40
2018-08-18T20:58:26.438Z,20.10
2018-08-18T21:00:54.107Z,20.10
2018-08-18T21:03:24.642Z,20.30
2018-08-18T21:05:52.362Z,20.50
2018-08-18T21:08:20.069Z,20.60
2018-08-18T21:10:48.506Z,20.90
2018-08-18T21:13:16.215Z,20.90
2018-08-18T21:15:43.792Z,20.90
2018-08-18T21:18:16.691Z,20.80
2018-08-18T21:20:44.479Z,21.00
2018-08-18T21:23:12.360Z,21.30
2018-08-18T21:25:48.176Z,21.20
2018-08-18T21:28:17.015Z,21.50
2018-08-18T21:30:44.731Z,21.70
2018-08-18T21:33:12.482Z,21.80
2018-08-18T21:35:40.434Z,21.80
2018-08-18T21:38:08.231Z,21.80
2018-08-18T21:40:37.090Z,22.20
2018-08-18T21:43:05.312Z,21.70
2018-08-18T21:45:39.644Z,22.00
2018-08-18T21:48:07.515Z,22.10
2018-08-18T21:50:35.227Z,22.10
2018-08-18T21:53:04.467Z,22.20
2018-08-18T21:55:32.283Z,22.30
2018-08-18T21:58:00.991Z,22.40
2018-08-18T22:00:34.226Z,22.50
2018-08-18T22:03:01.847Z,22.80
2018-08-18T22:05:31.388Z,22.90
2018-08-18T22:08:00.177Z,22.90
2018-08-18T22:10:28.740Z,22.90
2018-08-18T22:12:56.499Z,22.90
2018-08-18T22:15:25.504Z,22.80
2018-08-18T22:17:53.238Z,22.80
2018-08-18T22:20:22.160Z,23.20
2018-08-18T22:22:52.205Z,23.30
2018-08-18T22:25:19.767Z,23.40
2018-08-18T22:27:51.661Z,23.30
2018-08-18T22:30:19.618Z,23.60
2018-08-18T22:32:47.411Z,23.80
2018-08-18T22:35:15.183Z,23.70
2018-08-18T22:37:42.859Z,23.80
2018-08-18T22:40:11.162Z,23.60
2018-08-18T22:42:38.999Z,23.70
2018-08-18T22:45:26.144Z,23.70
2018-08-18T22:47:53.886Z,23.60
2018-08-18T22:50:21.606Z,23.60
2018-08-18T22:52:50.563Z,24.00
2018-08-18T22:55:18.824Z,24.10
2018-08-18T22:57:53.304Z,24.60
2018-08-18T23:00:21.772Z,24.80
2018-08-18T23:02:49.553Z,24.80
2018-08-18T23:05:18.074Z,24.80
2018-08-18T23:07:48.789Z,24.80
2018-08-18T23:10:17.099Z,24.80
2018-08-18T23:12:45.758Z,24.80
2018-08-18T23:15:13.518Z,24.80
2018-08-18T23:17:41.664Z,24.70
2018-08-18T23:20:09.429Z,24.70
2018-08-18T23:22:52.083Z,24.70
2018-08-18T23:25:20.150Z,24.70
2018-08-18T23:27:47.945Z,24.70
2018-08-18T23:30:19.813Z,24.70
2018-08-18T23:32:47.626Z,24.70
2018-08-18T23:35:15.513Z,24.70
2018-08-18T23:37:45.528Z,24.70
2018-08-18T23:40:13.216Z,24.70
2018-08-18T23:42:42.453Z,24.60
2018-08-18T23:45:10.568Z,24.60
2018-08-18T23:47:38.276Z,24.60
2018-08-18T23:50:05.957Z,24.50
2018-08-18T23:52:46.454Z,24.80
2018-08-18T23:55:14.288Z,25.00
2018-08-18T23:57:42.408Z,25.00
